Time;durP1;ratioP1;P1;durP2;ratioP2;P2;SDS_P1;SDS_P2;PMS_P1;PMS_P2;Temp;Humidity;BMP_temperature;BMP_pressure;BME280_temperature;BME280_humidity;BME280_pressure;Samples;Min_cycle;Max_cycle;Signal;HPM_P1;HPM_P2
2023/03/23 00:00:09;;;;;;;1.27;0.70;;;;;;;;;;5006608;28;20521;-76
2023/03/23 00:02:37;;;;;;;0.95;0.80;;;;;;;;;;5003874;28;20030;-76
2023/03/23 00:05:04;;;;;;;0.75;0.70;;;;;;;;;;5007890;28;20037;-76
2023/03/23 00:07:32;;;;;;;2.25;0.60;;;;;;;;;;5003656;28;20125;-76
2023/03/23 00:10:02;;;;;;;0.98;0.52;;;;;;;;;;5011686;28;20544;-76
2023/03/23 00:12:32;;;;;;;0.47;0.47;;;;;;;;;;5017455;28;20022;-76
2023/03/23 00:15:00;;;;;;;0.88;0.70;;;;;;;;;;4999305;28;20481;-76
2023/03/23 00:17:26;;;;;;;0.57;0.57;;;;;;;;;;5006486;28;20080;-76
2023/03/23 00:19:52;;;;;;;0.70;0.60;;;;;;;;;;5013541;28;20034;-76
2023/03/23 00:22:21;;;;;;;0.50;0.50;;;;;;;;;;5006858;28;20030;-76
2023/03/23 00:24:50;;;;;;;1.35;0.80;;;;;;;;;;5010663;28;20551;-76
2023/03/23 00:27:16;;;;;;;1.70;0.80;;;;;;;;;;5009249;28;20050;-76
2023/03/23 00:29:44;;;;;;;0.68;0.68;;;;;;;;;;5009925;28;20165;-76
2023/03/23 00:32:12;;;;;;;0.70;0.70;;;;;;;;;;5007040;28;20030;-76
2023/03/23 00:34:40;;;;;;;0.75;0.75;;;;;;;;;;5009489;28;20030;-76
2023/03/23 00:37:05;;;;;;;0.50;0.45;;;;;;;;;;5013218;28;20064;-76
2023/03/23 00:39:31;;;;;;;1.75;0.82;;;;;;;;;;5008786;28;20031;-76
2023/03/23 00:42:00;;;;;;;1.10;0.70;;;;;;;;;;5015293;28;20033;-76
2023/03/23 00:44:28;;;;;;;0.98;0.50;;;;;;;;;;5011546;28;20048;-76
2023/03/23 00:46:56;;;;;;;0.82;0.70;;;;;;;;;;5007628;28;20315;-76
2023/03/23 00:49:24;;;;;;;0.63;0.63;;;;;;;;;;5008592;28;20046;-76
2023/03/23 00:51:50;;;;;;;0.93;0.60;;;;;;;;;;5013351;28;20056;-76
2023/03/23 00:54:16;;;;;;;0.63;0.50;;;;;;;;;;5006367;28;20532;-76
2023/03/23 00:56:42;;;;;;;0.85;0.70;;;;;;;;;;5009454;28;20022;-76
2023/03/23 00:59:08;;;;;;;0.68;0.68;;;;;;;;;;5006436;28;20773;-76
2023/03/23 01:01:35;;;;;;;0.63;0.63;;;;;;;;;;5008298;28;20034;-76
2023/03/23 01:04:03;;;;;;;0.73;0.73;;;;;;;;;;5006406;28;20034;-76
2023/03/23 01:06:35;;;;;;;0.75;0.68;;;;;;;;;;5011941;28;20551;-76
2023/03/23 01:09:02;;;;;;;3.72;0.88;;;;;;;;;;5010476;28;20092;-76
2023/03/23 01:11:28;;;;;;;0.60;0.60;;;;;;;;;;5009800;28;20022;-76
2023/03/23 01:13:54;;;;;;;3.03;0.57;;;;;;;;;;4999526;28;20034;-76
2023/03/23 01:16:20;;;;;;;0.57;0.52;;;;;;;;;;5014704;28;20121;-76
2023/03/23 01:18:46;;;;;;;1.02;0.80;;;;;;;;;;5007599;28;20034;-76
2023/03/23 01:21:15;;;;;;;1.25;0.63;;;;;;;;;;5006357;28;20038;-76
2023/03/23 01:23:41;;;;;;;0.65;0.57;;;;;;;;;;5012473;28;20079;-75
2023/03/23 01:26:08;;;;;;;0.70;0.70;;;;;;;;;;5008810;28;20025;-75
2023/03/23 01:28:35;;;;;;;2.17;0.80;;;;;;;;;;5008296;28;20023;-76
2023/03/23 01:31:05;;;;;;;0.60;0.60;;;;;;;;;;5009991;28;20034;-76
2023/03/23 01:33:31;;;;;;;0.75;0.63;;;;;;;;;;5008289;28;20041;-76
2023/03/23 01:36:04;;;;;;;0.63;0.63;;;;;;;;;;5022170;28;20117;-76
2023/03/23 01:38:30;;;;;;;0.40;0.40;;;;;;;;;;5015067;28;20117;-76
2023/03/23 01:40:56;;;;;;;0.40;0.40;;;;;;;;;;5008695;28;20161;-76
2023/03/23 01:43:22;;;;;;;1.60;1.13;;;;;;;;;;5008026;28;20128;-76
2023/03/23 01:45:51;;;;;;;1.35;0.75;;;;;;;;;;5025494;28;20010;-75
2023/03/23 01:48:21;;;;;;;0.60;0.40;;;;;;;;;;5018384;28;20544;-76
2023/03/23 01:50:52;;;;;;;1.17;0.90;;;;;;;;;;5010117;28;20040;-76
2023/03/23 01:53:20;;;;;;;1.38;0.63;;;;;;;;;;5006009;28;20025;-76
2023/03/23 01:55:50;;;;;;;1.48;0.60;;;;;;;;;;5008051;28;20026;-76
2023/03/23 01:58:17;;;;;;;0.73;0.70;;;;;;;;;;5014874;28;20037;-75
2023/03/23 02:00:44;;;;;;;0.75;0.63;;;;;;;;;;5024957;28;20404;-76
2023/03/23 02:03:13;;;;;;;1.05;0.82;;;;;;;;;;5010796;28;20040;-76
2023/03/23 02:05:42;;;;;;;0.77;0.77;;;;;;;;;;5015064;28;20025;-76
2023/03/23 02:08:08;;;;;;;0.55;0.55;;;;;;;;;;5012169;28;20161;-76
2023/03/23 02:10:35;;;;;;;0.63;0.50;;;;;;;;;;5019820;28;20036;-76
2023/03/23 02:13:02;;;;;;;0.50;0.50;;;;;;;;;;5000816;28;20076;-76
2023/03/23 02:15:30;;;;;;;0.70;0.63;;;;;;;;;;5009581;28;20052;-76
2023/03/23 02:18:05;;;;;;;0.55;0.45;;;;;;;;;;5006681;28;20025;-76
2023/03/23 02:20:54;;;;;;;0.45;0.45;;;;;;;;;;5001195;28;20041;-76
2023/03/23 02:23:43;;;;;;;0.73;0.60;;;;;;;;;;4971975;28;20038;-76
2023/03/23 02:26:20;;;;;;;0.82;0.70;;;;;;;;;;4966300;28;20111;-75
2023/03/23 02:28:50;;;;;;;0.63;0.50;;;;;;;;;;5017842;28;20026;-75
2023/03/23 02:31:44;;;;;;;0.85;0.73;;;;;;;;;;5008668;28;20444;-76
2023/03/23 02:34:20;;;;;;;0.55;0.55;;;;;;;;;;5003995;28;20034;-75
2023/03/23 02:37:07;;;;;;;1.08;0.70;;;;;;;;;;5007030;28;20033;-75
2023/03/23 02:39:44;;;;;;;0.60;0.60;;;;;;;;;;5014735;28;20030;-75
2023/03/23 02:42:12;;;;;;;0.55;0.50;;;;;;;;;;5006008;28;20037;-75
2023/03/23 02:44:39;;;;;;;0.57;0.57;;;;;;;;;;5014948;28;20049;-75
2023/03/23 02:47:08;;;;;;;0.70;0.63;;;;;;;;;;5003738;28;20515;-76
2023/03/23 02:49:37;;;;;;;0.50;0.50;;;;;;;;;;5009014;28;20113;-76
2023/03/23 02:52:05;;;;;;;0.75;0.65;;;;;;;;;;5006724;28;20202;-76
2023/03/23 02:54:31;;;;;;;0.80;0.80;;;;;;;;;;5008697;28;20056;-76
2023/03/23 02:56:57;;;;;;;0.52;0.52;;;;;;;;;;5008006;28;20034;-76
2023/03/23 02:59:23;;;;;;;1.45;0.68;;;;;;;;;;5007530;28;20036;-76
2023/03/23 03:01:52;;;;;;;0.60;0.60;;;;;;;;;;5015480;28;20037;-76
2023/03/23 03:04:20;;;;;;;0.82;0.70;;;;;;;;;;5008822;28;20030;-76
2023/03/23 03:06:55;;;;;;;1.08;0.57;;;;;;;;;;5008741;28;20108;-76
2023/03/23 03:09:24;;;;;;;0.52;0.50;;;;;;;;;;5007701;28;20033;-76
2023/03/23 03:11:52;;;;;;;1.25;0.70;;;;;;;;;;4984989;28;20116;-76
2023/03/23 03:14:21;;;;;;;1.00;0.80;;;;;;;;;;5005799;28;20040;-76
2023/03/23 03:16:54;;;;;;;0.45;0.45;;;;;;;;;;5006286;28;20048;-76
2023/03/23 03:19:25;;;;;;;0.77;0.75;;;;;;;;;;5021423;28;20556;-76
2023/03/23 03:21:52;;;;;;;0.60;0.60;;;;;;;;;;5007142;28;20491;-76
2023/03/23 03:24:19;;;;;;;0.98;0.70;;;;;;;;;;5003632;28;20037;-75
2023/03/23 03:26:47;;;;;;;0.50;0.50;;;;;;;;;;5012975;28;20110;-76
2023/03/23 03:29:13;;;;;;;0.70;0.63;;;;;;;;;;5005404;28;20237;-76
2023/03/23 03:31:45;;;;;;;0.60;0.60;;;;;;;;;;5007241;28;20025;-76
2023/03/23 03:34:11;;;;;;;0.82;0.60;;;;;;;;;;5003276;28;20026;-76
2023/03/23 03:36:37;;;;;;;0.60;0.60;;;;;;;;;;5007715;28;20053;-76
2023/03/23 03:39:08;;;;;;;0.90;0.80;;;;;;;;;;5004263;28;20092;-75
2023/03/23 03:41:38;;;;;;;0.80;0.50;;;;;;;;;;5004810;28;20069;-75
2023/03/23 03:44:17;;;;;;;0.88;0.68;;;;;;;;;;5010750;28;20064;-75
2023/03/23 03:46:45;;;;;;;0.50;0.50;;;;;;;;;;5028694;28;20033;-75
2023/03/23 03:49:23;;;;;;;0.60;0.60;;;;;;;;;;5011525;28;21339;-75
2023/03/23 03:51:50;;;;;;;2.38;0.70;;;;;;;;;;5006760;28;20064;-76
2023/03/23 03:54:16;;;;;;;3.47;0.75;;;;;;;;;;5002926;28;20108;-76
2023/03/23 03:56:42;;;;;;;0.50;0.50;;;;;;;;;;5023129;28;20030;-75
2023/03/23 03:59:09;;;;;;;0.60;0.50;;;;;;;;;;5012830;28;20040;-76
2023/03/23 04:01:35;;;;;;;1.02;0.52;;;;;;;;;;5005059;28;20030;-76
2023/03/23 04:04:01;;;;;;;0.80;0.60;;;;;;;;;;5009297;28;20542;-76
2023/03/23 04:06:27;;;;;;;0.52;0.52;;;;;;;;;;5011440;28;20432;-76
2023/03/23 04:08:58;;;;;;;0.63;0.60;;;;;;;;;;5011141;28;20056;-75
2023/03/23 04:11:24;;;;;;;0.73;0.52;;;;;;;;;;5007834;28;20040;-76
2023/03/23 04:13:50;;;;;;;0.60;0.60;;;;;;;;;;5010068;28;20102;-76
2023/03/23 04:16:16;;;;;;;1.42;0.63;;;;;;;;;;5009323;28;20038;-76
2023/03/23 04:18:43;;;;;;;0.47;0.45;;;;;;;;;;5006772;28;20397;-76
2023/03/23 04:21:09;;;;;;;0.50;0.50;;;;;;;;;;5006762;28;20114;-76
2023/03/23 04:23:35;;;;;;;0.70;0.60;;;;;;;;;;5006305;28;20030;-76
2023/03/23 04:26:03;;;;;;;0.93;0.80;;;;;;;;;;5013331;28;20052;-76
2023/03/23 04:28:29;;;;;;;0.50;0.50;;;;;;;;;;5020758;28;20108;-76
2023/03/23 04:30:55;;;;;;;0.93;0.70;;;;;;;;;;5008127;28;20022;-76
2023/03/23 04:33:22;;;;;;;0.50;0.50;;;;;;;;;;5011809;28;20149;-76
2023/03/23 04:35:48;;;;;;;0.50;0.50;;;;;;;;;;5009671;28;20031;-75
2023/03/23 04:38:15;;;;;;;0.40;0.40;;;;;;;;;;5010716;28;20038;-75
2023/03/23 04:40:42;;;;;;;0.30;0.30;;;;;;;;;;5010296;28;20420;-76
2023/03/23 04:43:08;;;;;;;2.38;0.85;;;;;;;;;;5000993;28;20026;-76
2023/03/23 04:45:37;;;;;;;0.70;0.70;;;;;;;;;;5011394;28;21025;-76
2023/03/23 04:48:04;;;;;;;0.50;0.50;;;;;;;;;;5011286;28;20034;-75
2023/03/23 04:50:32;;;;;;;0.95;0.60;;;;;;;;;;5008891;28;20527;-76
2023/03/23 04:52:58;;;;;;;0.55;0.55;;;;;;;;;;5003368;28;20118;-75
2023/03/23 04:55:25;;;;;;;0.43;0.43;;;;;;;;;;5010416;28;20068;-75
2023/03/23 04:57:51;;;;;;;0.50;0.50;;;;;;;;;;5011538;28;20125;-75
2023/03/23 05:00:20;;;;;;;0.60;0.60;;;;;;;;;;5012697;28;20037;-75
2023/03/23 05:02:46;;;;;;;1.15;0.75;;;;;;;;;;5006175;28;20026;-75
2023/03/23 05:05:13;;;;;;;0.75;0.55;;;;;;;;;;5000623;28;21998;-75
2023/03/23 05:07:40;;;;;;;0.50;0.47;;;;;;;;;;5011151;28;20036;-75
2023/03/23 05:10:07;;;;;;;0.45;0.45;;;;;;;;;;5004660;28;20057;-75
2023/03/23 05:12:33;;;;;;;0.52;0.47;;;;;;;;;;5007445;28;20025;-75
2023/03/23 05:14:59;;;;;;;0.82;0.52;;;;;;;;;;5003366;28;20030;-76
2023/03/23 05:17:25;;;;;;;0.85;0.70;;;;;;;;;;5009015;28;20065;-76
2023/03/23 05:19:51;;;;;;;0.50;0.50;;;;;;;;;;5007526;28;20412;-75
2023/03/23 05:22:20;;;;;;;0.50;0.50;;;;;;;;;;4999914;28;20034;-75
2023/03/23 05:24:46;;;;;;;0.80;0.80;;;;;;;;;;5003844;28;20041;-76
2023/03/23 05:27:14;;;;;;;0.65;0.65;;;;;;;;;;5004390;28;20026;-74
2023/03/23 05:29:40;;;;;;;1.42;0.50;;;;;;;;;;5013608;28;20067;-76
2023/03/23 05:32:07;;;;;;;0.60;0.60;;;;;;;;;;5006240;28;20037;-75
2023/03/23 05:34:33;;;;;;;0.93;0.75;;;;;;;;;;5008332;28;20049;-75
2023/03/23 05:37:01;;;;;;;0.50;0.50;;;;;;;;;;5004847;28;20034;-74
2023/03/23 05:39:27;;;;;;;0.93;0.50;;;;;;;;;;5002307;28;20060;-77
2023/03/23 05:41:53;;;;;;;1.17;1.00;;;;;;;;;;5005889;28;20030;-76
2023/03/23 05:44:23;;;;;;;0.77;0.77;;;;;;;;;;5004175;28;20049;-76
2023/03/23 05:46:49;;;;;;;0.50;0.50;;;;;;;;;;5009661;28;20021;-75
2023/03/23 05:49:18;;;;;;;0.82;0.60;;;;;;;;;;5006944;28;20025;-76
2023/03/23 05:51:45;;;;;;;0.57;0.57;;;;;;;;;;5006005;28;20030;-75
2023/03/23 05:54:11;;;;;;;0.60;0.60;;;;;;;;;;5006463;28;20032;-75
2023/03/23 05:56:37;;;;;;;0.88;0.57;;;;;;;;;;5013374;28;20040;-76
2023/03/23 05:59:03;;;;;;;1.20;0.80;;;;;;;;;;5007855;28;20053;-76
2023/03/23 06:01:29;;;;;;;0.50;0.50;;;;;;;;;;5006588;28;20030;-75
2023/03/23 06:03:58;;;;;;;0.52;0.52;;;;;;;;;;5007063;28;20471;-75
2023/03/23 06:06:24;;;;;;;0.93;0.50;;;;;;;;;;4996423;28;20022;-76
2023/03/23 06:08:50;;;;;;;0.65;0.60;;;;;;;;;;5016261;28;20022;-76
2023/03/23 06:11:17;;;;;;;5.18;0.70;;;;;;;;;;5019487;28;20021;-76
2023/03/23 06:13:44;;;;;;;1.38;0.68;;;;;;;;;;5017335;28;20081;-76
2023/03/23 06:16:10;;;;;;;0.68;0.60;;;;;;;;;;5009893;28;20030;-77
2023/03/23 06:18:36;;;;;;;0.40;0.40;;;;;;;;;;5008165;28;20041;-77
2023/03/23 06:21:03;;;;;;;0.40;0.40;;;;;;;;;;5005148;28;20030;-77
2023/03/23 06:23:29;;;;;;;0.57;0.57;;;;;;;;;;5019291;28;20100;-77
2023/03/23 06:25:58;;;;;;;0.80;0.80;;;;;;;;;;5009388;28;20477;-77
2023/03/23 06:28:24;;;;;;;0.70;0.70;;;;;;;;;;5023397;28;20033;-76
2023/03/23 06:30:51;;;;;;;0.93;0.70;;;;;;;;;;5007149;28;20030;-76
2023/03/23 06:33:17;;;;;;;0.32;0.32;;;;;;;;;;4989346;28;20037;-76
2023/03/23 06:35:43;;;;;;;0.50;0.50;;;;;;;;;;5002676;28;20094;-76
2023/03/23 06:38:09;;;;;;;1.15;0.57;;;;;;;;;;5008152;28;20032;-77
2023/03/23 06:40:36;;;;;;;0.65;0.65;;;;;;;;;;5007945;28;20030;-76
2023/03/23 06:43:04;;;;;;;0.57;0.50;;;;;;;;;;5006079;28;20030;-77
2023/03/23 06:45:31;;;;;;;0.75;0.75;;;;;;;;;;5010101;28;20030;-77
2023/03/23 06:47:57;;;;;;;0.40;0.40;;;;;;;;;;5019671;28;20025;-77
2023/03/23 06:50:23;;;;;;;2.42;0.60;;;;;;;;;;5014603;28;20030;-77
2023/03/23 06:52:51;;;;;;;0.73;0.55;;;;;;;;;;5004730;28;20075;-77
2023/03/23 06:55:17;;;;;;;0.75;0.43;;;;;;;;;;5010493;28;20037;-77
2023/03/23 06:57:43;;;;;;;0.57;0.57;;;;;;;;;;5016994;28;20105;-76
2023/03/23 07:00:13;;;;;;;0.50;0.50;;;;;;;;;;5008542;28;20033;-77
2023/03/23 07:02:43;;;;;;;0.90;0.47;;;;;;;;;;5008037;28;20088;-76
2023/03/23 07:05:12;;;;;;;0.55;0.52;;;;;;;;;;5014155;28;20030;-76
2023/03/23 07:07:38;;;;;;;0.47;0.47;;;;;;;;;;5007571;28;20037;-77
2023/03/23 07:10:05;;;;;;;0.35;0.35;;;;;;;;;;5007520;28;20072;-76
2023/03/23 07:12:33;;;;;;;1.08;0.90;;;;;;;;;;5010484;28;20049;-76
2023/03/23 07:14:58;;;;;;;0.40;0.40;;;;;;;;;;5014149;28;20038;-76
2023/03/23 07:17:24;;;;;;;0.47;0.47;;;;;;;;;;5008329;28;20603;-75
2023/03/23 07:19:51;;;;;;;0.40;0.40;;;;;;;;;;5009321;28;20033;-75
2023/03/23 07:22:17;;;;;;;0.43;0.43;;;;;;;;;;5008757;28;20137;-76
2023/03/23 07:24:43;;;;;;;0.75;0.60;;;;;;;;;;5012099;28;20468;-76
2023/03/23 07:27:12;;;;;;;0.40;0.40;;;;;;;;;;5010101;28;20619;-76
2023/03/23 07:29:38;;;;;;;1.08;0.98;;;;;;;;;;5007787;28;20160;-76
2023/03/23 07:32:04;;;;;;;0.40;0.40;;;;;;;;;;5018489;28;20121;-77
2023/03/23 07:34:31;;;;;;;0.88;0.50;;;;;;;;;;5018188;28;20045;-76
2023/03/23 07:36:57;;;;;;;0.55;0.50;;;;;;;;;;5010215;28;20163;-76
2023/03/23 07:39:24;;;;;;;0.60;0.60;;;;;;;;;;5004337;28;20065;-75
2023/03/23 07:41:50;;;;;;;0.20;0.20;;;;;;;;;;5008001;28;20101;-76
2023/03/23 07:44:16;;;;;;;0.40;0.40;;;;;;;;;;5007155;28;20041;-76
2023/03/23 07:46:42;;;;;;;0.28;0.28;;;;;;;;;;5007900;28;20045;-76
2023/03/23 07:49:08;;;;;;;0.80;0.77;;;;;;;;;;5004740;28;20961;-77
2023/03/23 07:51:34;;;;;;;1.27;0.50;;;;;;;;;;5013786;28;20122;-76
2023/03/23 07:54:02;;;;;;;0.43;0.43;;;;;;;;;;5006417;28;20112;-76
2023/03/23 07:56:28;;;;;;;0.43;0.40;;;;;;;;;;5008632;28;20030;-76
2023/03/23 07:58:54;;;;;;;0.40;0.40;;;;;;;;;;5005505;28;20113;-76
2023/03/23 08:01:23;;;;;;;1.58;0.65;;;;;;;;;;5005226;28;20388;-82
2023/03/23 08:03:51;;;;;;;0.60;0.60;;;;;;;;;;5007297;28;20030;-76
2023/03/23 08:06:17;;;;;;;0.63;0.43;;;;;;;;;;5006599;28;20034;-79
2023/03/23 08:08:43;;;;;;;0.47;0.40;;;;;;;;;;4999943;28;20022;-76
2023/03/23 08:11:09;;;;;;;1.35;0.52;;;;;;;;;;5005429;28;20489;-76
2023/03/23 08:13:35;;;;;;;1.27;0.65;;;;;;;;;;5011815;28;20427;-76
2023/03/23 08:16:04;;;;;;;1.05;0.47;;;;;;;;;;5027354;28;20037;-76
2023/03/23 08:18:31;;;;;;;0.35;0.35;;;;;;;;;;5027573;28;20037;-76
2023/03/23 08:20:58;;;;;;;0.50;0.50;;;;;;;;;;5023729;28;20034;-76
2023/03/23 08:23:24;;;;;;;2.63;0.60;;;;;;;;;;5027357;28;20025;-76
2023/03/23 08:25:50;;;;;;;1.30;0.50;;;;;;;;;;5027469;28;20021;-76
2023/03/23 08:28:16;;;;;;;0.80;0.52;;;;;;;;;;5027517;28;20428;-76
2023/03/23 08:30:42;;;;;;;0.40;0.40;;;;;;;;;;5027330;28;20522;-75
2023/03/23 08:33:10;;;;;;;2.55;0.55;;;;;;;;;;5006923;28;20026;-75
2023/03/23 08:35:36;;;;;;;0.65;0.57;;;;;;;;;;5022460;28;20053;-74
2023/03/23 08:38:03;;;;;;;1.30;0.68;;;;;;;;;;5026642;28;20037;-75
2023/03/23 08:40:29;;;;;;;1.35;0.60;;;;;;;;;;5011952;28;20034;-75
2023/03/23 08:42:55;;;;;;;0.93;0.63;;;;;;;;;;5027696;28;20026;-75
2023/03/23 08:45:22;;;;;;;0.85;0.50;;;;;;;;;;5010354;28;20495;-75
2023/03/23 08:47:51;;;;;;;0.82;0.60;;;;;;;;;;5018889;28;20101;-75
2023/03/23 08:50:19;;;;;;;0.30;0.30;;;;;;;;;;5030598;28;20025;-76
2023/03/23 08:52:49;;;;;;;1.00;0.68;;;;;;;;;;5024312;28;20392;-75
2023/03/23 08:55:15;;;;;;;0.40;0.40;;;;;;;;;;5010347;28;20057;-75
2023/03/23 08:57:43;;;;;;;1.25;0.57;;;;;;;;;;5010996;28;20038;-75
2023/03/23 09:00:17;;;;;;;0.30;0.30;;;;;;;;;;5012465;28;20033;-75
2023/03/23 09:02:47;;;;;;;0.68;0.35;;;;;;;;;;5012189;28;20030;-76
2023/03/23 09:05:14;;;;;;;0.50;0.50;;;;;;;;;;5027747;28;20137;-75
2023/03/23 09:07:40;;;;;;;0.50;0.50;;;;;;;;;;5030185;28;20033;-75
2023/03/23 09:10:07;;;;;;;1.33;0.70;;;;;;;;;;5030783;28;20028;-76
2023/03/23 09:12:33;;;;;;;0.40;0.40;;;;;;;;;;5030328;28;20532;-76
2023/03/23 09:15:01;;;;;;;0.50;0.40;;;;;;;;;;5014525;28;20068;-76
2023/03/23 09:17:26;;;;;;;1.05;0.45;;;;;;;;;;5030391;28;20033;-76
2023/03/23 09:19:53;;;;;;;0.40;0.40;;;;;;;;;;5030202;28;20036;-76
2023/03/23 09:22:19;;;;;;;0.60;0.52;;;;;;;;;;5030205;28;20025;-76
2023/03/23 09:24:46;;;;;;;0.30;0.30;;;;;;;;;;5019330;28;20018;-76
2023/03/23 09:27:12;;;;;;;0.65;0.55;;;;;;;;;;5010344;28;20030;-76
2023/03/23 09:29:38;;;;;;;0.45;0.43;;;;;;;;;;5010116;28;20030;-76
2023/03/23 09:32:04;;;;;;;0.63;0.40;;;;;;;;;;5010170;28;20092;-75
2023/03/23 09:34:30;;;;;;;1.17;0.43;;;;;;;;;;5008822;28;20538;-76
2023/03/23 09:36:56;;;;;;;0.63;0.50;;;;;;;;;;5010611;28;20026;-76
2023/03/23 09:39:22;;;;;;;0.40;0.40;;;;;;;;;;5009736;28;20076;-76
2023/03/23 09:41:58;;;;;;;0.32;0.32;;;;;;;;;;5010193;28;20084;-76
2023/03/23 09:44:39;;;;;;;0.45;0.45;;;;;;;;;;5010083;28;20079;-76
2023/03/23 09:47:28;;;;;;;1.17;0.40;;;;;;;;;;5013016;28;20105;-76
2023/03/23 09:50:00;;;;;;;0.50;0.50;;;;;;;;;;5003862;28;20370;-76
2023/03/23 09:52:56;;;;;;;0.55;0.50;;;;;;;;;;5007476;28;20030;-75
2023/03/23 09:55:22;;;;;;;0.50;0.50;;;;;;;;;;5002751;28;20124;-75
2023/03/23 09:58:10;;;;;;;0.80;0.40;;;;;;;;;;5029555;28;20104;-76
2023/03/23 10:00:54;;;;;;;0.95;0.50;;;;;;;;;;5029441;28;20234;-76
2023/03/23 10:03:22;;;;;;;0.50;0.40;;;;;;;;;;5029229;28;20107;-75
2023/03/23 10:05:49;;;;;;;0.40;0.40;;;;;;;;;;5011704;28;20049;-76
2023/03/23 10:08:17;;;;;;;0.40;0.40;;;;;;;;;;5011735;28;20022;-76
2023/03/23 10:10:55;;;;;;;0.80;0.77;;;;;;;;;;5021166;28;20077;-75
2023/03/23 10:13:32;;;;;;;0.28;0.28;;;;;;;;;;5027078;28;20357;-75
2023/03/23 10:15:58;;;;;;;0.50;0.40;;;;;;;;;;5021264;28;20037;-75
2023/03/23 10:18:36;;;;;;;0.40;0.40;;;;;;;;;;5009507;28;20030;-74
2023/03/23 10:21:03;;;;;;;0.68;0.65;;;;;;;;;;5009438;28;20032;-74
2023/03/23 10:23:48;;;;;;;0.43;0.43;;;;;;;;;;5009415;28;20052;-75
2023/03/23 10:26:17;;;;;;;0.30;0.30;;;;;;;;;;5007771;28;20034;-75
2023/03/23 10:29:06;;;;;;;0.40;0.40;;;;;;;;;;5020201;28;20041;-75
2023/03/23 10:31:38;;;;;;;1.17;0.52;;;;;;;;;;5016209;28;20037;-74
2023/03/23 10:34:17;;;;;;;0.28;0.17;;;;;;;;;;5028738;28;20044;-75
2023/03/23 10:36:55;;;;;;;1.67;0.40;;;;;;;;;;5020684;28;20034;-75
2023/03/23 10:39:23;;;;;;;0.40;0.40;;;;;;;;;;5016636;28;20028;-76
2023/03/23 10:41:49;;;;;;;1.63;0.30;;;;;;;;;;5009295;28;20037;-75
2023/03/23 10:44:17;;;;;;;0.40;0.40;;;;;;;;;;5008570;28;20206;-75
2023/03/23 10:47:03;;;;;;;0.35;0.35;;;;;;;;;;5006314;28;20025;-75
2023/03/23 10:49:34;;;;;;;0.60;0.45;;;;;;;;;;5008941;28;20026;-75
2023/03/23 10:52:19;;;;;;;0.55;0.40;;;;;;;;;;5008836;28;20053;-75
2023/03/23 10:54:53;;;;;;;0.82;0.60;;;;;;;;;;5019996;28;20091;-75
2023/03/23 10:57:26;;;;;;;0.57;0.43;;;;;;;;;;5028126;28;20029;-74
2023/03/23 10:59:58;;;;;;;0.80;0.60;;;;;;;;;;5028444;28;20057;-75
2023/03/23 11:02:24;;;;;;;2.35;0.30;;;;;;;;;;5009373;28;20034;-74
2023/03/23 11:04:59;;;;;;;0.80;0.35;;;;;;;;;;5006272;28;20385;-75
2023/03/23 11:07:28;;;;;;;0.50;0.50;;;;;;;;;;5008724;28;20018;-75
2023/03/23 11:09:55;;;;;;;0.47;0.47;;;;;;;;;;5008917;28;20026;-75
2023/03/23 11:12:22;;;;;;;0.30;0.28;;;;;;;;;;5008495;28;20022;-75
2023/03/23 11:14:49;;;;;;;0.30;0.30;;;;;;;;;;5008549;28;20034;-74
2023/03/23 11:17:23;;;;;;;0.43;0.43;;;;;;;;;;5006781;28;20053;-75
2023/03/23 11:19:49;;;;;;;0.52;0.52;;;;;;;;;;5008714;28;20029;-74
2023/03/23 11:22:23;;;;;;;0.40;0.35;;;;;;;;;;5008411;28;20030;-75
2023/03/23 11:24:52;;;;;;;1.23;0.40;;;;;;;;;;5008541;28;20033;-75
2023/03/23 11:27:20;;;;;;;0.30;0.30;;;;;;;;;;5005686;28;20030;-74
2023/03/23 11:29:50;;;;;;;0.52;0.52;;;;;;;;;;5013489;28;20029;-75
2023/03/23 11:32:17;;;;;;;3.05;0.20;;;;;;;;;;5028044;28;20494;-75
2023/03/23 11:34:42;;;;;;;0.32;0.32;;;;;;;;;;5027844;28;20029;-75
2023/03/23 11:37:19;;;;;;;0.40;0.30;;;;;;;;;;5021648;28;20040;-75
2023/03/23 11:39:55;;;;;;;0.43;0.40;;;;;;;;;;5007035;28;20561;-75
2023/03/23 11:42:26;;;;;;;1.27;0.70;;;;;;;;;;5007939;28;20119;-75
2023/03/23 11:44:52;;;;;;;4.05;0.60;;;;;;;;;;5008264;28;20113;-75
2023/03/23 11:47:18;;;;;;;0.63;0.30;;;;;;;;;;5007927;28;20026;-76
2023/03/23 11:50:03;;;;;;;0.30;0.30;;;;;;;;;;5005545;28;20022;-75
2023/03/23 11:52:59;;;;;;;0.30;0.30;;;;;;;;;;5007064;28;20532;-74
2023/03/23 11:55:52;;;;;;;0.25;0.25;;;;;;;;;;4999240;28;20100;-74
2023/03/23 11:58:19;;;;;;;0.25;0.20;;;;;;;;;;5007922;28;20022;-75
2023/03/23 12:00:59;;;;;;;0.40;0.40;;;;;;;;;;5006138;28;20034;-74
2023/03/23 12:03:28;;;;;;;0.57;0.57;;;;;;;;;;5007959;28;20061;-75
2023/03/23 12:06:06;;;;;;;0.43;0.35;;;;;;;;;;5008240;28;20034;-75
2023/03/23 12:08:56;;;;;;;0.25;0.25;;;;;;;;;;5008053;28;20025;-75
2023/03/23 12:11:36;;;;;;;0.50;0.40;;;;;;;;;;5011965;28;20026;-74
2023/03/23 12:14:12;;;;;;;0.55;0.35;;;;;;;;;;5030079;28;20037;-74
2023/03/23 12:16:49;;;;;;;0.43;0.43;;;;;;;;;;5031203;28;20601;-75
2023/03/23 12:19:18;;;;;;;0.40;0.40;;;;;;;;;;5026918;28;20053;-75
2023/03/23 12:21:50;;;;;;;0.40;0.40;;;;;;;;;;5011391;28;20030;-75
2023/03/23 12:24:35;;;;;;;0.50;0.45;;;;;;;;;;5011486;28;20049;-75
2023/03/23 12:27:10;;;;;;;0.57;0.50;;;;;;;;;;5011622;28;20080;-75
2023/03/23 12:29:48;;;;;;;0.50;0.50;;;;;;;;;;5009902;28;20966;-75
2023/03/23 12:32:14;;;;;;;0.60;0.50;;;;;;;;;;5010031;28;20072;-75
2023/03/23 12:34:40;;;;;;;0.52;0.52;;;;;;;;;;5016906;28;20045;-75
2023/03/23 12:37:09;;;;;;;0.57;0.40;;;;;;;;;;5031390;28;20029;-75
2023/03/23 12:39:35;;;;;;;0.50;0.40;;;;;;;;;;5016924;28;20390;-75
2023/03/23 12:42:20;;;;;;;0.47;0.47;;;;;;;;;;5009237;28;20113;-75
2023/03/23 12:44:49;;;;;;;0.52;0.40;;;;;;;;;;5011286;28;20044;-75
2023/03/23 12:47:22;;;;;;;0.30;0.30;;;;;;;;;;5011341;28;20092;-75
2023/03/23 12:49:54;;;;;;;0.57;0.50;;;;;;;;;;5011251;28;20026;-75
2023/03/23 12:52:33;;;;;;;0.30;0.30;;;;;;;;;;5009295;28;20113;-75
2023/03/23 12:55:03;;;;;;;0.65;0.35;;;;;;;;;;5004982;28;20021;-75
2023/03/23 12:57:35;;;;;;;1.00;0.52;;;;;;;;;;5005813;28;20052;-74
2023/03/23 13:00:11;;;;;;;0.40;0.40;;;;;;;;;;5010957;28;20026;-75
2023/03/23 13:02:54;;;;;;;0.60;0.60;;;;;;;;;;5011522;28;20498;-75
2023/03/23 13:05:26;;;;;;;0.73;0.65;;;;;;;;;;5007824;28;20021;-75
2023/03/23 13:08:04;;;;;;;0.88;0.60;;;;;;;;;;4999459;28;20037;-74
2023/03/23 13:10:33;;;;;;;0.68;0.63;;;;;;;;;;5009571;28;20026;-75
2023/03/23 13:12:59;;;;;;;0.93;0.80;;;;;;;;;;5010806;28;20022;-76
2023/03/23 13:15:44;;;;;;;1.65;0.65;;;;;;;;;;5006626;28;20034;-76
2023/03/23 13:18:13;;;;;;;0.60;0.60;;;;;;;;;;5003614;28;20065;-77
2023/03/23 13:20:45;;;;;;;0.32;0.32;;;;;;;;;;5008808;28;20044;-77
2023/03/23 13:23:11;;;;;;;0.57;0.57;;;;;;;;;;5012024;28;20059;-77
2023/03/23 13:25:52;;;;;;;0.50;0.50;;;;;;;;;;5020261;28;20037;-77
2023/03/23 13:28:20;;;;;;;0.70;0.70;;;;;;;;;;5010308;28;20037;-77
2023/03/23 13:30:58;;;;;;;0.70;0.47;;;;;;;;;;5007629;28;20033;-76
2023/03/23 13:33:25;;;;;;;0.52;0.40;;;;;;;;;;5000808;28;20026;-78
2023/03/23 13:35:51;;;;;;;0.70;0.60;;;;;;;;;;5010729;28;20115;-78
2023/03/23 13:38:25;;;;;;;0.43;0.25;;;;;;;;;;5008422;28;20037;-77
2023/03/23 13:40:52;;;;;;;1.38;0.70;;;;;;;;;;5010680;28;20042;-79
2023/03/23 13:43:28;;;;;;;1.63;0.70;;;;;;;;;;5008496;28;20057;-76
2023/03/23 13:45:55;;;;;;;0.63;0.55;;;;;;;;;;5010357;28;20048;-76
2023/03/23 13:48:23;;;;;;;5.55;0.90;;;;;;;;;;5005983;28;20054;-83
2023/03/23 13:50:52;;;;;;;0.50;0.50;;;;;;;;;;5029756;28;20087;-78
2023/03/23 13:53:24;;;;;;;0.50;0.50;;;;;;;;;;5010241;28;20034;-80
2023/03/23 13:55:51;;;;;;;1.40;0.50;;;;;;;;;;5009905;28;20053;-76
2023/03/23 13:58:25;;;;;;;5.18;2.28;;;;;;;;;;5007174;28;20072;-76
2023/03/23 14:01:01;;;;;;;12.20;4.70;;;;;;;;;;5008973;28;20599;-79
2023/03/23 14:03:39;;;;;;;7.20;2.83;;;;;;;;;;5009320;28;20053;-76
2023/03/23 14:06:06;;;;;;;6.75;1.55;;;;;;;;;;5007341;28;20037;-78
2023/03/23 14:08:32;;;;;;;3.58;1.65;;;;;;;;;;5009583;28;20018;-76
2023/03/23 14:11:03;;;;;;;3.67;1.27;;;;;;;;;;5008860;28;20033;-77
2023/03/23 14:13:32;;;;;;;3.50;1.20;;;;;;;;;;5009618;28;20053;-78
2023/03/23 14:16:03;;;;;;;3.05;1.30;;;;;;;;;;5007694;28;20124;-80
2023/03/23 14:18:39;;;;;;;5.00;1.50;;;;;;;;;;5008772;28;20233;-81
2023/03/23 14:21:05;;;;;;;2.13;1.55;;;;;;;;;;5000572;28;20033;-78
2023/03/23 14:23:33;;;;;;;8.10;1.83;;;;;;;;;;5002285;28;20021;-83
2023/03/23 14:26:06;;;;;;;4.50;1.40;;;;;;;;;;5014742;28;20073;-81
2023/03/23 14:28:32;;;;;;;2.20;1.23;;;;;;;;;;5014930;28;20102;-82
2023/03/23 14:30:59;;;;;;;2.45;1.30;;;;;;;;;;5011515;28;20038;-82
2023/03/23 14:33:27;;;;;;;5.18;1.27;;;;;;;;;;5006178;28;20048;-79
2023/03/23 14:35:53;;;;;;;6.78;1.20;;;;;;;;;;5004781;28;20025;-82
2023/03/23 14:38:21;;;;;;;4.43;1.73;;;;;;;;;;5006273;28;20050;-81
2023/03/23 14:40:47;;;;;;;3.38;1.40;;;;;;;;;;4999501;28;20061;-79
2023/03/23 14:43:15;;;;;;;2.88;1.27;;;;;;;;;;5002074;28;20034;-78
2023/03/23 14:45:41;;;;;;;2.28;1.23;;;;;;;;;;4975298;28;20026;-79
2023/03/23 14:48:08;;;;;;;7.13;1.90;;;;;;;;;;5008035;28;20053;-81
2023/03/23 14:50:37;;;;;;;4.82;1.42;;;;;;;;;;5006536;28;20473;-77
2023/03/23 14:53:10;;;;;;;2.85;0.98;;;;;;;;;;5005524;28;20088;-77
2023/03/23 14:55:36;;;;;;;1.90;1.02;;;;;;;;;;4997939;28;20464;-76